KSVH/SVH METAR and TAF weather

Enter ICAO airport designator
Station Type Date Time Source
KSVH METAR 2020/09/30 16:15 UTC NOAA

KSVH 301615Z AUTO 25009KT 10SM CLR 19/07 A3001 RMK AO2 T01900065


Station Type Date Time Source
KSVH Decoded METAR 2020/09/30 16:15 UTC NOAA

Statesville, Statesville Municipal Airport, NC, United States (KSVH) 35-45-55N 080-57-24W
Sep 30, 2020 - 12:15 PM EDT / 2020.09.30 1615 UTC
Wind: from the WSW (250 degrees) at 10 MPH (9 KT):0
Visibility: 10 mile(s):0
Sky conditions: clear
Temperature: 66.2 F (19.0 C)
Dew Point: 43.7 F (6.5 C)
Relative Humidity: 44%
Pressure (altimeter): 30.01 in. Hg (1016 hPa)
ob: KSVH 301615Z AUTO 25009KT 10SM CLR 19/07 A3001 RMK AO2 T01900065
cycle: 16

Station Type Date Time Source
KSVH TAF UTC NOAA

Error!

Example: see airport list